sensor_id;sensor_type;location;lat;lon;timestamp;P1;durP1;ratioP1;P2;durP2;ratioP2
62931;SDS011;49037;41.898;25.004;2024-03-02T00:02:21;35.28;;;14.93;;
62931;SDS011;49037;41.898;25.004;2024-03-02T00:04:47;36.75;;;14.90;;
62931;SDS011;49037;41.898;25.004;2024-03-02T00:07:13;38.95;;;15.55;;
62931;SDS011;49037;41.898;25.004;2024-03-02T00:09:39;39.95;;;16.13;;
62931;SDS011;49037;41.898;25.004;2024-03-02T00:12:05;38.50;;;14.90;;
62931;SDS011;49037;41.898;25.004;2024-03-02T00:14:30;42.90;;;15.57;;
62931;SDS011;49037;41.898;25.004;2024-03-02T00:16:56;37.30;;;14.80;;
62931;SDS011;49037;41.898;25.004;2024-03-02T00:19:22;37.38;;;14.05;;
62931;SDS011;49037;41.898;25.004;2024-03-02T00:21:48;37.42;;;14.57;;
62931;SDS011;49037;41.898;25.004;2024-03-02T00:24:34;32.58;;;12.38;;
62931;SDS011;49037;41.898;25.004;2024-03-02T00:27:00;27.77;;;12.60;;
62931;SDS011;49037;41.898;25.004;2024-03-02T00:29:28;31.15;;;13.00;;
62931;SDS011;49037;41.898;25.004;2024-03-02T00:31:54;29.10;;;12.50;;
62931;SDS011;49037;41.898;25.004;2024-03-02T00:34:20;25.17;;;10.73;;
62931;SDS011;49037;41.898;25.004;2024-03-02T00:36:47;33.42;;;12.80;;
62931;SDS011;49037;41.898;25.004;2024-03-02T00:39:14;28.05;;;11.25;;
62931;SDS011;49037;41.898;25.004;2024-03-02T00:41:42;28.48;;;11.93;;
62931;SDS011;49037;41.898;25.004;2024-03-02T00:44:09;26.55;;;10.88;;
62931;SDS011;49037;41.898;25.004;2024-03-02T00:46:40;26.58;;;11.35;;
62931;SDS011;49037;41.898;25.004;2024-03-02T00:49:20;25.75;;;10.95;;
62931;SDS011;49037;41.898;25.004;2024-03-02T00:51:47;29.35;;;10.43;;
62931;SDS011;49037;41.898;25.004;2024-03-02T00:54:14;40.50;;;14.98;;
62931;SDS011;49037;41.898;25.004;2024-03-02T00:56:43;48.28;;;17.17;;
62931;SDS011;49037;41.898;25.004;2024-03-02T00:59:09;55.42;;;19.80;;
62931;SDS011;49037;41.898;25.004;2024-03-02T01:01:35;66.47;;;20.45;;
62931;SDS011;49037;41.898;25.004;2024-03-02T01:04:01;87.00;;;20.25;;
62931;SDS011;49037;41.898;25.004;2024-03-02T01:06:26;104.60;;;19.13;;
62931;SDS011;49037;41.898;25.004;2024-03-02T01:08:52;89.95;;;15.63;;
62931;SDS011;49037;41.898;25.004;2024-03-02T01:11:18;91.38;;;21.73;;
62931;SDS011;49037;41.898;25.004;2024-03-02T01:13:46;113.53;;;21.33;;
62931;SDS011;49037;41.898;25.004;2024-03-02T01:16:13;75.22;;;18.52;;
62931;SDS011;49037;41.898;25.004;2024-03-02T01:18:38;68.38;;;21.17;;
62931;SDS011;49037;41.898;25.004;2024-03-02T01:21:04;103.32;;;19.30;;
62931;SDS011;49037;41.898;25.004;2024-03-02T01:23:29;123.20;;;32.42;;
62931;SDS011;49037;41.898;25.004;2024-03-02T01:25:55;84.38;;;18.98;;
62931;SDS011;49037;41.898;25.004;2024-03-02T01:28:20;86.13;;;25.95;;
62931;SDS011;49037;41.898;25.004;2024-03-02T01:30:46;96.45;;;16.17;;
62931;SDS011;49037;41.898;25.004;2024-03-02T01:33:12;74.25;;;22.45;;
62931;SDS011;49037;41.898;25.004;2024-03-02T01:35:38;82.40;;;22.80;;
62931;SDS011;49037;41.898;25.004;2024-03-02T01:38:03;78.80;;;16.02;;
62931;SDS011;49037;41.898;25.004;2024-03-02T01:40:31;74.45;;;14.52;;
62931;SDS011;49037;41.898;25.004;2024-03-02T01:42:59;85.90;;;13.75;;
62931;SDS011;49037;41.898;25.004;2024-03-02T01:45:25;80.45;;;14.35;;
62931;SDS011;49037;41.898;25.004;2024-03-02T01:47:50;88.20;;;15.32;;
62931;SDS011;49037;41.898;25.004;2024-03-02T01:50:24;70.97;;;12.68;;
62931;SDS011;49037;41.898;25.004;2024-03-02T01:52:56;75.95;;;12.40;;
62931;SDS011;49037;41.898;25.004;2024-03-02T01:55:22;80.88;;;15.02;;
62931;SDS011;49037;41.898;25.004;2024-03-02T01:57:51;83.82;;;16.20;;
62931;SDS011;49037;41.898;25.004;2024-03-02T02:00:20;78.90;;;18.63;;
62931;SDS011;49037;41.898;25.004;2024-03-02T02:02:46;93.13;;;20.45;;
62931;SDS011;49037;41.898;25.004;2024-03-02T02:05:13;90.75;;;20.40;;
62931;SDS011;49037;41.898;25.004;2024-03-02T02:07:39;104.03;;;21.30;;
62931;SDS011;49037;41.898;25.004;2024-03-02T02:10:06;81.63;;;16.60;;
62931;SDS011;49037;41.898;25.004;2024-03-02T02:12:32;83.18;;;14.50;;
62931;SDS011;49037;41.898;25.004;2024-03-02T02:14:57;72.53;;;14.63;;
62931;SDS011;49037;41.898;25.004;2024-03-02T02:17:23;74.85;;;12.90;;
62931;SDS011;49037;41.898;25.004;2024-03-02T02:19:48;74.68;;;14.25;;
62931;SDS011;49037;41.898;25.004;2024-03-02T02:22:14;76.47;;;12.80;;
62931;SDS011;49037;41.898;25.004;2024-03-02T02:24:40;70.72;;;14.43;;
62931;SDS011;49037;41.898;25.004;2024-03-02T02:27:09;86.38;;;14.07;;
62931;SDS011;49037;41.898;25.004;2024-03-02T02:29:35;63.75;;;16.95;;
62931;SDS011;49037;41.898;25.004;2024-03-02T02:32:06;64.53;;;14.23;;
62931;SDS011;49037;41.898;25.004;2024-03-02T02:34:32;79.90;;;22.25;;
62931;SDS011;49037;41.898;25.004;2024-03-02T02:36:58;72.22;;;21.05;;
62931;SDS011;49037;41.898;25.004;2024-03-02T02:39:24;77.00;;;14.05;;
62931;SDS011;49037;41.898;25.004;2024-03-02T02:41:49;76.15;;;15.23;;
62931;SDS011;49037;41.898;25.004;2024-03-02T02:44:14;68.57;;;12.60;;
62931;SDS011;49037;41.898;25.004;2024-03-02T02:46:40;71.28;;;13.90;;
62931;SDS011;49037;41.898;25.004;2024-03-02T02:49:06;75.97;;;17.15;;
62931;SDS011;49037;41.898;25.004;2024-03-02T02:51:32;69.80;;;13.57;;
62931;SDS011;49037;41.898;25.004;2024-03-02T02:53:57;75.40;;;17.00;;
62931;SDS011;49037;41.898;25.004;2024-03-02T02:56:23;70.30;;;13.60;;
62931;SDS011;49037;41.898;25.004;2024-03-02T02:58:48;72.30;;;13.43;;
62931;SDS011;49037;41.898;25.004;2024-03-02T03:01:14;72.35;;;15.48;;
62931;SDS011;49037;41.898;25.004;2024-03-02T03:03:43;52.78;;;14.13;;
62931;SDS011;49037;41.898;25.004;2024-03-02T03:06:08;78.30;;;13.98;;
62931;SDS011;49037;41.898;25.004;2024-03-02T03:08:38;68.97;;;13.70;;
62931;SDS011;49037;41.898;25.004;2024-03-02T03:11:04;76.47;;;14.93;;
62931;SDS011;49037;41.898;25.004;2024-03-02T03:13:30;63.65;;;14.85;;
62931;SDS011;49037;41.898;25.004;2024-03-02T03:15:59;53.85;;;13.98;;
62931;SDS011;49037;41.898;25.004;2024-03-02T03:18:25;55.03;;;14.63;;
62931;SDS011;49037;41.898;25.004;2024-03-02T03:20:50;59.97;;;11.25;;
62931;SDS011;49037;41.898;25.004;2024-03-02T03:23:16;67.60;;;12.38;;
62931;SDS011;49037;41.898;25.004;2024-03-02T03:25:42;66.95;;;14.20;;
62931;SDS011;49037;41.898;25.004;2024-03-02T03:28:09;59.88;;;15.18;;
62931;SDS011;49037;41.898;25.004;2024-03-02T03:30:38;58.75;;;13.02;;
62931;SDS011;49037;41.898;25.004;2024-03-02T03:33:04;55.67;;;15.25;;
62931;SDS011;49037;41.898;25.004;2024-03-02T03:35:33;81.40;;;13.57;;
62931;SDS011;49037;41.898;25.004;2024-03-02T03:37:58;63.70;;;15.20;;
62931;SDS011;49037;41.898;25.004;2024-03-02T03:40:26;56.42;;;13.10;;
62931;SDS011;49037;41.898;25.004;2024-03-02T03:42:51;78.32;;;13.30;;
62931;SDS011;49037;41.898;25.004;2024-03-02T03:45:17;72.40;;;15.25;;
62931;SDS011;49037;41.898;25.004;2024-03-02T03:47:42;73.90;;;13.85;;
62931;SDS011;49037;41.898;25.004;2024-03-02T03:50:08;51.10;;;12.38;;
62931;SDS011;49037;41.898;25.004;2024-03-02T03:52:40;58.08;;;12.52;;
62931;SDS011;49037;41.898;25.004;2024-03-02T03:55:06;67.40;;;12.25;;
62931;SDS011;49037;41.898;25.004;2024-03-02T03:57:31;75.80;;;13.00;;
62931;SDS011;49037;41.898;25.004;2024-03-02T03:59:57;63.28;;;12.75;;
62931;SDS011;49037;41.898;25.004;2024-03-02T04:02:22;66.65;;;13.13;;
62931;SDS011;49037;41.898;25.004;2024-03-02T04:04:49;109.35;;;19.58;;
62931;SDS011;49037;41.898;25.004;2024-03-02T04:07:15;353.15;;;81.47;;
62931;SDS011;49037;41.898;25.004;2024-03-02T04:09:40;225.50;;;66.88;;
62931;SDS011;49037;41.898;25.004;2024-03-02T04:12:06;121.55;;;35.85;;
62931;SDS011;49037;41.898;25.004;2024-03-02T04:14:31;60.78;;;14.68;;
62931;SDS011;49037;41.898;25.004;2024-03-02T04:16:57;78.28;;;13.65;;
62931;SDS011;49037;41.898;25.004;2024-03-02T04:19:23;62.13;;;12.35;;
62931;SDS011;49037;41.898;25.004;2024-03-02T04:21:48;52.63;;;14.05;;
62931;SDS011;49037;41.898;25.004;2024-03-02T04:24:13;144.60;;;55.00;;
62931;SDS011;49037;41.898;25.004;2024-03-02T04:26:39;77.60;;;18.73;;
62931;SDS011;49037;41.898;25.004;2024-03-02T04:29:04;60.38;;;13.07;;
62931;SDS011;49037;41.898;25.004;2024-03-02T04:31:30;69.35;;;19.80;;
62931;SDS011;49037;41.898;25.004;2024-03-02T04:33:55;51.83;;;15.50;;
62931;SDS011;49037;41.898;25.004;2024-03-02T04:36:21;86.30;;;27.38;;
62931;SDS011;49037;41.898;25.004;2024-03-02T04:38:46;40.03;;;12.82;;
62931;SDS011;49037;41.898;25.004;2024-03-02T04:41:12;40.33;;;13.32;;
62931;SDS011;49037;41.898;25.004;2024-03-02T04:43:38;65.50;;;14.77;;
62931;SDS011;49037;41.898;25.004;2024-03-02T04:46:05;47.35;;;13.32;;
62931;SDS011;49037;41.898;25.004;2024-03-02T04:48:31;47.90;;;12.52;;
62931;SDS011;49037;41.898;25.004;2024-03-02T04:50:57;43.08;;;11.35;;
62931;SDS011;49037;41.898;25.004;2024-03-02T04:53:23;39.10;;;11.32;;
62931;SDS011;49037;41.898;25.004;2024-03-02T04:55:48;47.03;;;15.10;;
62931;SDS011;49037;41.898;25.004;2024-03-02T04:58:49;49.38;;;14.65;;
62931;SDS011;49037;41.898;25.004;2024-03-02T05:01:14;48.95;;;14.55;;
62931;SDS011;49037;41.898;25.004;2024-03-02T05:03:41;44.70;;;13.45;;
62931;SDS011;49037;41.898;25.004;2024-03-02T05:06:07;46.10;;;13.52;;
62931;SDS011;49037;41.898;25.004;2024-03-02T05:08:33;44.72;;;12.65;;
62931;SDS011;49037;41.898;25.004;2024-03-02T05:10:59;44.67;;;11.98;;
62931;SDS011;49037;41.898;25.004;2024-03-02T05:13:44;44.63;;;12.38;;
62931;SDS011;49037;41.898;25.004;2024-03-02T05:16:10;37.78;;;12.43;;
62931;SDS011;49037;41.898;25.004;2024-03-02T05:18:36;45.58;;;16.83;;
62931;SDS011;49037;41.898;25.004;2024-03-02T05:21:03;46.17;;;14.02;;
62931;SDS011;49037;41.898;25.004;2024-03-02T05:23:28;51.60;;;13.43;;
62931;SDS011;49037;41.898;25.004;2024-03-02T05:25:54;47.08;;;14.43;;
62931;SDS011;49037;41.898;25.004;2024-03-02T05:28:19;34.55;;;12.30;;
62931;SDS011;49037;41.898;25.004;2024-03-02T05:30:45;45.90;;;14.80;;
62931;SDS011;49037;41.898;25.004;2024-03-02T05:33:11;36.33;;;12.85;;
62931;SDS011;49037;41.898;25.004;2024-03-02T05:35:36;37.97;;;13.32;;
62931;SDS011;49037;41.898;25.004;2024-03-02T05:38:02;36.80;;;14.38;;
62931;SDS011;49037;41.898;25.004;2024-03-02T05:40:28;40.65;;;12.60;;
62931;SDS011;49037;41.898;25.004;2024-03-02T05:42:53;35.65;;;11.43;;
62931;SDS011;49037;41.898;25.004;2024-03-02T05:45:21;29.52;;;11.43;;
62931;SDS011;49037;41.898;25.004;2024-03-02T05:47:47;33.97;;;11.77;;
62931;SDS011;49037;41.898;25.004;2024-03-02T05:50:15;31.75;;;11.10;;
62931;SDS011;49037;41.898;25.004;2024-03-02T05:52:40;32.25;;;13.73;;
62931;SDS011;49037;41.898;25.004;2024-03-02T05:55:07;27.55;;;11.25;;
62931;SDS011;49037;41.898;25.004;2024-03-02T05:57:32;29.73;;;10.73;;
62931;SDS011;49037;41.898;25.004;2024-03-02T06:00:20;28.10;;;9.73;;
62931;SDS011;49037;41.898;25.004;2024-03-02T06:02:47;21.95;;;9.93;;
62931;SDS011;49037;41.898;25.004;2024-03-02T06:05:14;26.30;;;10.77;;
62931;SDS011;49037;41.898;25.004;2024-03-02T06:07:41;41.05;;;14.23;;
62931;SDS011;49037;41.898;25.004;2024-03-02T06:10:06;32.45;;;14.20;;
62931;SDS011;49037;41.898;25.004;2024-03-02T06:12:34;41.95;;;16.42;;
62931;SDS011;49037;41.898;25.004;2024-03-02T06:14:59;37.38;;;15.65;;
62931;SDS011;49037;41.898;25.004;2024-03-02T06:17:28;34.38;;;13.18;;
62931;SDS011;49037;41.898;25.004;2024-03-02T06:19:54;41.38;;;17.30;;
62931;SDS011;49037;41.898;25.004;2024-03-02T06:22:20;41.60;;;16.85;;
62931;SDS011;49037;41.898;25.004;2024-03-02T06:24:47;48.00;;;16.63;;
62931;SDS011;49037;41.898;25.004;2024-03-02T06:27:14;42.67;;;16.02;;
62931;SDS011;49037;41.898;25.004;2024-03-02T06:29:39;57.05;;;19.83;;
62931;SDS011;49037;41.898;25.004;2024-03-02T06:32:05;48.20;;;16.85;;
62931;SDS011;49037;41.898;25.004;2024-03-02T06:34:31;35.85;;;14.25;;
62931;SDS011;49037;41.898;25.004;2024-03-02T06:36:56;31.27;;;12.32;;
62931;SDS011;49037;41.898;25.004;2024-03-02T06:39:21;49.65;;;20.95;;
62931;SDS011;49037;41.898;25.004;2024-03-02T06:41:47;48.97;;;25.20;;
62931;SDS011;49037;41.898;25.004;2024-03-02T06:44:13;38.53;;;15.57;;
62931;SDS011;49037;41.898;25.004;2024-03-02T06:46:38;43.97;;;21.90;;
62931;SDS011;49037;41.898;25.004;2024-03-02T06:49:04;34.05;;;13.85;;
62931;SDS011;49037;41.898;25.004;2024-03-02T06:51:29;36.05;;;13.60;;
62931;SDS011;49037;41.898;25.004;2024-03-02T06:53:55;37.65;;;17.08;;
62931;SDS011;49037;41.898;25.004;2024-03-02T06:56:21;35.35;;;15.20;;
62931;SDS011;49037;41.898;25.004;2024-03-02T06:58:46;39.00;;;17.70;;
62931;SDS011;49037;41.898;25.004;2024-03-02T07:01:12;34.63;;;13.75;;
62931;SDS011;49037;41.898;25.004;2024-03-02T07:03:38;33.47;;;13.10;;
62931;SDS011;49037;41.898;25.004;2024-03-02T07:06:06;29.13;;;12.73;;
62931;SDS011;49037;41.898;25.004;2024-03-02T07:08:32;27.90;;;11.48;;
62931;SDS011;49037;41.898;25.004;2024-03-02T07:11:05;27.83;;;11.55;;
62931;SDS011;49037;41.898;25.004;2024-03-02T07:13:30;27.13;;;11.93;;
62931;SDS011;49037;41.898;25.004;2024-03-02T07:15:56;28.00;;;13.90;;
62931;SDS011;49037;41.898;25.004;2024-03-02T07:18:40;21.23;;;9.25;;
62931;SDS011;49037;41.898;25.004;2024-03-02T07:21:10;29.80;;;15.90;;
62931;SDS011;49037;41.898;25.004;2024-03-02T07:23:36;20.27;;;8.75;;
62931;SDS011;49037;41.898;25.004;2024-03-02T07:26:06;17.40;;;7.53;;
62931;SDS011;49037;41.898;25.004;2024-03-02T07:28:37;16.83;;;9.18;;
62931;SDS011;49037;41.898;25.004;2024-03-02T07:31:06;17.45;;;8.70;;
62931;SDS011;49037;41.898;25.004;2024-03-02T07:33:32;24.38;;;11.65;;
62931;SDS011;49037;41.898;25.004;2024-03-02T07:35:57;22.52;;;11.63;;
62931;SDS011;49037;41.898;25.004;2024-03-02T07:38:27;20.40;;;10.48;;
62931;SDS011;49037;41.898;25.004;2024-03-02T07:40:54;19.98;;;9.88;;
62931;SDS011;49037;41.898;25.004;2024-03-02T07:43:20;22.77;;;9.98;;
62931;SDS011;49037;41.898;25.004;2024-03-02T07:45:46;22.23;;;9.63;;
62931;SDS011;49037;41.898;25.004;2024-03-02T07:48:12;22.30;;;10.27;;
62931;SDS011;49037;41.898;25.004;2024-03-02T07:50:38;24.42;;;9.90;;
62931;SDS011;49037;41.898;25.004;2024-03-02T07:53:04;33.70;;;13.35;;
62931;SDS011;49037;41.898;25.004;2024-03-02T07:55:30;25.20;;;11.40;;
62931;SDS011;49037;41.898;25.004;2024-03-02T07:57:58;29.30;;;13.02;;
62931;SDS011;49037;41.898;25.004;2024-03-02T08:00:25;24.42;;;10.93;;
62931;SDS011;49037;41.898;25.004;2024-03-02T08:02:51;22.38;;;11.32;;
62931;SDS011;49037;41.898;25.004;2024-03-02T08:05:17;21.83;;;9.98;;
62931;SDS011;49037;41.898;25.004;2024-03-02T08:07:44;23.10;;;9.98;;
62931;SDS011;49037;41.898;25.004;2024-03-02T08:10:11;18.80;;;9.45;;
62931;SDS011;49037;41.898;25.004;2024-03-02T08:12:36;20.70;;;10.13;;
62931;SDS011;49037;41.898;25.004;2024-03-02T08:15:02;21.52;;;10.20;;
62931;SDS011;49037;41.898;25.004;2024-03-02T08:17:28;25.30;;;10.80;;
62931;SDS011;49037;41.898;25.004;2024-03-02T08:19:53;22.10;;;11.80;;
62931;SDS011;49037;41.898;25.004;2024-03-02T08:22:19;24.45;;;11.82;;
62931;SDS011;49037;41.898;25.004;2024-03-02T08:24:45;28.88;;;14.23;;
62931;SDS011;49037;41.898;25.004;2024-03-02T08:27:11;26.48;;;13.20;;
62931;SDS011;49037;41.898;25.004;2024-03-02T08:29:37;24.30;;;12.23;;
62931;SDS011;49037;41.898;25.004;2024-03-02T08:32:02;20.48;;;9.93;;
62931;SDS011;49037;41.898;25.004;2024-03-02T08:34:28;20.35;;;9.15;;
62931;SDS011;49037;41.898;25.004;2024-03-02T08:36:53;20.42;;;8.82;;
62931;SDS011;49037;41.898;25.004;2024-03-02T08:39:19;20.67;;;9.68;;
62931;SDS011;49037;41.898;25.004;2024-03-02T08:41:46;25.77;;;11.60;;
62931;SDS011;49037;41.898;25.004;2024-03-02T08:44:22;25.65;;;11.35;;
62931;SDS011;49037;41.898;25.004;2024-03-02T08:46:48;29.08;;;13.95;;
62931;SDS011;49037;41.898;25.004;2024-03-02T08:49:13;28.15;;;12.18;;
62931;SDS011;49037;41.898;25.004;2024-03-02T08:51:39;27.98;;;12.05;;
62931;SDS011;49037;41.898;25.004;2024-03-02T08:54:04;25.90;;;11.13;;
62931;SDS011;49037;41.898;25.004;2024-03-02T08:56:30;24.58;;;11.07;;
62931;SDS011;49037;41.898;25.004;2024-03-02T08:58:56;23.45;;;12.00;;
62931;SDS011;49037;41.898;25.004;2024-03-02T09:01:22;25.83;;;12.75;;
62931;SDS011;49037;41.898;25.004;2024-03-02T09:03:48;26.27;;;11.23;;
62931;SDS011;49037;41.898;25.004;2024-03-02T09:06:16;26.27;;;13.27;;
62931;SDS011;49037;41.898;25.004;2024-03-02T09:08:42;28.70;;;14.60;;
62931;SDS011;49037;41.898;25.004;2024-03-02T09:11:08;28.30;;;13.80;;
62931;SDS011;49037;41.898;25.004;2024-03-02T09:13:35;22.88;;;11.13;;
62931;SDS011;49037;41.898;25.004;2024-03-02T09:16:00;23.25;;;11.35;;
62931;SDS011;49037;41.898;25.004;2024-03-02T09:18:26;20.73;;;10.63;;
62931;SDS011;49037;41.898;25.004;2024-03-02T09:20:54;21.70;;;11.10;;
62931;SDS011;49037;41.898;25.004;2024-03-02T09:23:24;25.27;;;12.98;;
62931;SDS011;49037;41.898;25.004;2024-03-02T09:25:50;29.73;;;14.25;;
62931;SDS011;49037;41.898;25.004;2024-03-02T09:28:18;27.25;;;12.35;;
62931;SDS011;49037;41.898;25.004;2024-03-02T09:30:44;24.80;;;12.35;;
62931;SDS011;49037;41.898;25.004;2024-03-02T09:33:09;30.35;;;14.45;;
62931;SDS011;49037;41.898;25.004;2024-03-02T09:35:35;26.50;;;12.43;;
62931;SDS011;49037;41.898;25.004;2024-03-02T09:38:00;27.98;;;12.35;;
62931;SDS011;49037;41.898;25.004;2024-03-02T09:40:26;23.85;;;11.95;;
62931;SDS011;49037;41.898;25.004;2024-03-02T09:42:52;23.58;;;10.98;;
62931;SDS011;49037;41.898;25.004;2024-03-02T09:45:23;27.17;;;13.57;;
62931;SDS011;49037;41.898;25.004;2024-03-02T09:47:49;28.27;;;13.32;;
62931;SDS011;49037;41.898;25.004;2024-03-02T09:50:15;32.63;;;15.27;;
62931;SDS011;49037;41.898;25.004;2024-03-02T09:52:42;37.28;;;14.45;;
62931;SDS011;49037;41.898;25.004;2024-03-02T09:55:08;37.00;;;17.25;;
62931;SDS011;49037;41.898;25.004;2024-03-02T09:57:33;36.63;;;15.73;;
62931;SDS011;49037;41.898;25.004;2024-03-02T09:59:59;34.20;;;17.10;;
62931;SDS011;49037;41.898;25.004;2024-03-02T10:02:25;30.00;;;14.50;;
62931;SDS011;49037;41.898;25.004;2024-03-02T10:04:50;34.75;;;14.68;;
62931;SDS011;49037;41.898;25.004;2024-03-02T10:07:16;44.00;;;20.25;;
62931;SDS011;49037;41.898;25.004;2024-03-02T10:09:46;32.60;;;14.57;;
62931;SDS011;49037;41.898;25.004;2024-03-02T10:12:14;37.95;;;16.23;;
62931;SDS011;49037;41.898;25.004;2024-03-02T10:14:42;32.80;;;14.07;;
62931;SDS011;49037;41.898;25.004;2024-03-02T10:17:09;34.78;;;16.10;;
62931;SDS011;49037;41.898;25.004;2024-03-02T10:19:36;33.70;;;15.38;;
62931;SDS011;49037;41.898;25.004;2024-03-02T10:22:06;30.65;;;12.48;;
62931;SDS011;49037;41.898;25.004;2024-03-02T10:24:39;26.98;;;13.32;;
62931;SDS011;49037;41.898;25.004;2024-03-02T10:27:17;25.42;;;12.18;;
62931;SDS011;49037;41.898;25.004;2024-03-02T10:29:48;27.48;;;12.93;;
62931;SDS011;49037;41.898;25.004;2024-03-02T10:32:17;33.60;;;15.05;;
62931;SDS011;49037;41.898;25.004;2024-03-02T10:34:43;34.28;;;14.95;;
62931;SDS011;49037;41.898;25.004;2024-03-02T10:37:10;31.48;;;13.77;;
62931;SDS011;49037;41.898;25.004;2024-03-02T10:39:37;38.17;;;14.70;;
62931;SDS011;49037;41.898;25.004;2024-03-02T10:42:07;31.05;;;13.50;;
62931;SDS011;49037;41.898;25.004;2024-03-02T10:44:37;32.28;;;14.07;;
62931;SDS011;49037;41.898;25.004;2024-03-02T10:51:19;28.33;;;13.13;;
62931;SDS011;49037;41.898;25.004;2024-03-02T10:57:40;30.35;;;13.43;;
62931;SDS011;49037;41.898;25.004;2024-03-02T11:00:23;37.67;;;14.60;;
62931;SDS011;49037;41.898;25.004;2024-03-02T11:03:09;30.13;;;13.80;;
62931;SDS011;49037;41.898;25.004;2024-03-02T11:06:18;37.28;;;15.45;;
62931;SDS011;49037;41.898;25.004;2024-03-02T11:08:57;35.38;;;16.05;;
62931;SDS011;49037;41.898;25.004;2024-03-02T11:14:56;29.65;;;12.25;;
62931;SDS011;49037;41.898;25.004;2024-03-02T11:17:29;32.65;;;12.82;;
62931;SDS011;49037;41.898;25.004;2024-03-02T11:19:57;30.80;;;13.15;;
62931;SDS011;49037;41.898;25.004;2024-03-02T11:22:23;28.02;;;11.55;;
62931;SDS011;49037;41.898;25.004;2024-03-02T11:24:49;27.63;;;13.50;;
62931;SDS011;49037;41.898;25.004;2024-03-02T11:27:58;29.30;;;13.82;;
62931;SDS011;49037;41.898;25.004;2024-03-02T11:30:38;34.40;;;16.20;;
62931;SDS011;49037;41.898;25.004;2024-03-02T11:33:04;31.30;;;13.35;;
62931;SDS011;49037;41.898;25.004;2024-03-02T11:35:36;34.50;;;13.93;;
62931;SDS011;49037;41.898;25.004;2024-03-02T11:38:03;41.00;;;17.40;;
62931;SDS011;49037;41.898;25.004;2024-03-02T11:40:41;45.38;;;17.17;;
62931;SDS011;49037;41.898;25.004;2024-03-02T11:43:09;35.60;;;15.73;;
62931;SDS011;49037;41.898;25.004;2024-03-02T11:45:38;26.00;;;11.10;;
62931;SDS011;49037;41.898;25.004;2024-03-02T11:48:08;22.05;;;9.77;;
62931;SDS011;49037;41.898;25.004;2024-03-02T11:50:49;28.35;;;11.10;;
62931;SDS011;49037;41.898;25.004;2024-03-02T11:53:17;26.58;;;11.50;;
62931;SDS011;49037;41.898;25.004;2024-03-02T11:56:01;30.92;;;10.98;;
62931;SDS011;49037;41.898;25.004;2024-03-02T11:58:48;26.42;;;11.90;;
62931;SDS011;49037;41.898;25.004;2024-03-02T12:01:16;25.05;;;10.73;;
62931;SDS011;49037;41.898;25.004;2024-03-02T12:03:44;21.50;;;10.68;;
62931;SDS011;49037;41.898;25.004;2024-03-02T12:06:11;26.60;;;11.48;;
62931;SDS011;49037;41.898;25.004;2024-03-02T12:08:38;27.95;;;11.60;;
62931;SDS011;49037;41.898;25.004;2024-03-02T12:11:06;21.55;;;10.45;;
62931;SDS011;49037;41.898;25.004;2024-03-02T12:13:40;28.55;;;12.50;;
62931;SDS011;49037;41.898;25.004;2024-03-02T12:16:25;22.52;;;10.13;;
62931;SDS011;49037;41.898;25.004;2024-03-02T12:18:51;23.83;;;9.90;;
62931;SDS011;49037;41.898;25.004;2024-03-02T12:21:35;21.90;;;9.05;;
62931;SDS011;49037;41.898;25.004;2024-03-02T12:24:05;19.17;;;8.88;;
62931;SDS011;49037;41.898;25.004;2024-03-02T12:26:33;22.85;;;10.77;;
62931;SDS011;49037;41.898;25.004;2024-03-02T12:28:59;20.95;;;9.75;;
62931;SDS011;49037;41.898;25.004;2024-03-02T12:31:24;28.30;;;12.10;;
62931;SDS011;49037;41.898;25.004;2024-03-02T12:33:52;23.50;;;12.00;;
62931;SDS011;49037;41.898;25.004;2024-03-02T12:36:29;32.22;;;14.55;;
62931;SDS011;49037;41.898;25.004;2024-03-02T12:38:55;26.83;;;11.80;;
62931;SDS011;49037;41.898;25.004;2024-03-02T12:41:21;27.30;;;11.38;;
62931;SDS011;49037;41.898;25.004;2024-03-02T12:43:46;27.33;;;11.93;;
62931;SDS011;49037;41.898;25.004;2024-03-02T12:46:12;32.10;;;14.10;;
62931;SDS011;49037;41.898;25.004;2024-03-02T12:48:38;30.90;;;13.43;;
62931;SDS011;49037;41.898;25.004;2024-03-02T12:51:07;28.73;;;13.00;;
62931;SDS011;49037;41.898;25.004;2024-03-02T12:53:33;25.17;;;12.65;;
62931;SDS011;49037;41.898;25.004;2024-03-02T12:56:01;25.55;;;11.25;;
62931;SDS011;49037;41.898;25.004;2024-03-02T12:58:29;33.53;;;14.38;;
62931;SDS011;49037;41.898;25.004;2024-03-02T13:01:05;33.60;;;15.15;;
62931;SDS011;49037;41.898;25.004;2024-03-02T13:03:35;31.27;;;15.02;;
62931;SDS011;49037;41.898;25.004;2024-03-02T13:06:01;27.67;;;13.32;;
62931;SDS011;49037;41.898;25.004;2024-03-02T13:08:27;29.25;;;13.82;;
62931;SDS011;49037;41.898;25.004;2024-03-02T13:10:52;31.23;;;13.82;;
62931;SDS011;49037;41.898;25.004;2024-03-02T13:13:21;32.33;;;13.10;;
62931;SDS011;49037;41.898;25.004;2024-03-02T13:15:48;29.08;;;12.57;;
62931;SDS011;49037;41.898;25.004;2024-03-02T13:18:13;30.00;;;13.20;;
62931;SDS011;49037;41.898;25.004;2024-03-02T13:20:39;25.70;;;11.60;;
62931;SDS011;49037;41.898;25.004;2024-03-02T13:23:08;28.15;;;12.57;;
62931;SDS011;49037;41.898;25.004;2024-03-02T13:25:33;31.83;;;12.82;;
62931;SDS011;49037;41.898;25.004;2024-03-02T13:27:59;30.77;;;12.93;;
62931;SDS011;49037;41.898;25.004;2024-03-02T13:30:25;30.27;;;12.98;;
62931;SDS011;49037;41.898;25.004;2024-03-02T13:32:51;27.63;;;12.73;;
62931;SDS011;49037;41.898;25.004;2024-03-02T13:35:17;34.78;;;14.30;;
62931;SDS011;49037;41.898;25.004;2024-03-02T13:37:43;36.65;;;16.45;;
62931;SDS011;49037;41.898;25.004;2024-03-02T13:40:08;30.58;;;13.77;;
62931;SDS011;49037;41.898;25.004;2024-03-02T13:42:39;31.55;;;14.25;;
62931;SDS011;49037;41.898;25.004;2024-03-02T13:45:05;27.65;;;12.10;;
62931;SDS011;49037;41.898;25.004;2024-03-02T13:47:31;21.83;;;10.43;;
62931;SDS011;49037;41.898;25.004;2024-03-02T13:49:57;29.50;;;12.90;;
62931;SDS011;49037;41.898;25.004;2024-03-02T13:52:23;27.42;;;13.60;;
62931;SDS011;49037;41.898;25.004;2024-03-02T13:54:50;36.65;;;20.60;;
62931;SDS011;49037;41.898;25.004;2024-03-02T13:57:17;34.17;;;16.55;;
62931;SDS011;49037;41.898;25.004;2024-03-02T13:59:47;32.53;;;15.75;;
62931;SDS011;49037;41.898;25.004;2024-03-02T14:02:12;41.22;;;20.98;;
62931;SDS011;49037;41.898;25.004;2024-03-02T14:04:50;35.08;;;17.80;;
62931;SDS011;49037;41.898;25.004;2024-03-02T14:07:44;38.05;;;19.00;;
62931;SDS011;49037;41.898;25.004;2024-03-02T14:10:35;29.98;;;13.93;;
62931;SDS011;49037;41.898;25.004;2024-03-02T14:13:00;27.60;;;11.95;;
62931;SDS011;49037;41.898;25.004;2024-03-02T14:15:31;32.65;;;15.48;;
62931;SDS011;49037;41.898;25.004;2024-03-02T14:18:05;38.67;;;19.15;;
62931;SDS011;49037;41.898;25.004;2024-03-02T14:20:34;59.13;;;25.67;;
62931;SDS011;49037;41.898;25.004;2024-03-02T14:23:02;108.60;;;46.88;;
62931;SDS011;49037;41.898;25.004;2024-03-02T14:28:37;45.28;;;22.15;;